sensor_id;sensor_type;location;lat;lon;timestamp;P1;durP1;ratioP1;P2;durP2;ratioP2
42200;SDS011;27869;51.442;7.540;2023-03-14T00:02:20;5.03;;;1.00;;
42200;SDS011;27869;51.442;7.540;2023-03-14T00:04:47;5.75;;;0.93;;
42200;SDS011;27869;51.442;7.540;2023-03-14T00:07:15;9.32;;;1.58;;
42200;SDS011;27869;51.442;7.540;2023-03-14T00:09:42;7.45;;;1.20;;
42200;SDS011;27869;51.442;7.540;2023-03-14T00:12:09;10.75;;;1.40;;
42200;SDS011;27869;51.442;7.540;2023-03-14T00:14:36;8.95;;;1.20;;
42200;SDS011;27869;51.442;7.540;2023-03-14T00:17:03;8.13;;;1.30;;
42200;SDS011;27869;51.442;7.540;2023-03-14T00:19:30;7.03;;;1.20;;
42200;SDS011;27869;51.442;7.540;2023-03-14T00:21:57;8.15;;;1.15;;
42200;SDS011;27869;51.442;7.540;2023-03-14T00:24:25;8.77;;;1.35;;
42200;SDS011;27869;51.442;7.540;2023-03-14T00:26:52;8.05;;;1.20;;
42200;SDS011;27869;51.442;7.540;2023-03-14T00:29:18;9.30;;;1.17;;
42200;SDS011;27869;51.442;7.540;2023-03-14T00:31:45;6.50;;;1.08;;
42200;SDS011;27869;51.442;7.540;2023-03-14T00:34:12;5.50;;;0.80;;
42200;SDS011;27869;51.442;7.540;2023-03-14T00:36:39;7.13;;;1.40;;
42200;SDS011;27869;51.442;7.540;2023-03-14T00:39:06;7.28;;;0.80;;
42200;SDS011;27869;51.442;7.540;2023-03-14T00:41:34;5.38;;;0.93;;
42200;SDS011;27869;51.442;7.540;2023-03-14T00:44:01;7.88;;;1.17;;
42200;SDS011;27869;51.442;7.540;2023-03-14T00:46:28;5.00;;;0.88;;
42200;SDS011;27869;51.442;7.540;2023-03-14T00:48:55;6.95;;;1.30;;
42200;SDS011;27869;51.442;7.540;2023-03-14T00:51:21;7.22;;;1.13;;
42200;SDS011;27869;51.442;7.540;2023-03-14T00:53:48;6.90;;;1.02;;
42200;SDS011;27869;51.442;7.540;2023-03-14T00:56:15;7.03;;;1.30;;
42200;SDS011;27869;51.442;7.540;2023-03-14T00:58:43;8.02;;;1.27;;
42200;SDS011;27869;51.442;7.540;2023-03-14T01:01:12;8.65;;;1.35;;
42200;SDS011;27869;51.442;7.540;2023-03-14T01:03:40;7.30;;;1.20;;
42200;SDS011;27869;51.442;7.540;2023-03-14T01:06:08;5.35;;;1.10;;
42200;SDS011;27869;51.442;7.540;2023-03-14T01:11:07;4.93;;;1.13;;
42200;SDS011;27869;51.442;7.540;2023-03-14T01:13:34;5.90;;;1.35;;
42200;SDS011;27869;51.442;7.540;2023-03-14T01:16:04;5.95;;;1.20;;
42200;SDS011;27869;51.442;7.540;2023-03-14T01:18:32;7.65;;;1.10;;
42200;SDS011;27869;51.442;7.540;2023-03-14T01:21:01;4.72;;;0.88;;
42200;SDS011;27869;51.442;7.540;2023-03-14T01:23:28;7.95;;;1.20;;
42200;SDS011;27869;51.442;7.540;2023-03-14T01:25:55;6.35;;;1.00;;
42200;SDS011;27869;51.442;7.540;2023-03-14T01:28:21;8.98;;;1.52;;
42200;SDS011;27869;51.442;7.540;2023-03-14T01:30:48;7.97;;;1.27;;
42200;SDS011;27869;51.442;7.540;2023-03-14T01:33:17;6.97;;;1.10;;
42200;SDS011;27869;51.442;7.540;2023-03-14T01:35:43;4.18;;;0.70;;
42200;SDS011;27869;51.442;7.540;2023-03-14T01:38:11;3.83;;;0.68;;
42200;SDS011;27869;51.442;7.540;2023-03-14T01:40:41;3.97;;;0.73;;
42200;SDS011;27869;51.442;7.540;2023-03-14T01:43:13;5.53;;;0.73;;
42200;SDS011;27869;51.442;7.540;2023-03-14T01:48:46;6.65;;;0.77;;
42200;SDS011;27869;51.442;7.540;2023-03-14T01:51:19;5.15;;;0.75;;
42200;SDS011;27869;51.442;7.540;2023-03-14T01:53:50;9.00;;;1.40;;
42200;SDS011;27869;51.442;7.540;2023-03-14T01:56:19;4.22;;;0.63;;
42200;SDS011;27869;51.442;7.540;2023-03-14T01:58:47;5.45;;;0.80;;
42200;SDS011;27869;51.442;7.540;2023-03-14T02:01:18;6.95;;;0.90;;
42200;SDS011;27869;51.442;7.540;2023-03-14T02:03:49;5.15;;;0.98;;
42200;SDS011;27869;51.442;7.540;2023-03-14T02:06:21;4.40;;;0.60;;
42200;SDS011;27869;51.442;7.540;2023-03-14T02:08:51;6.00;;;1.00;;
42200;SDS011;27869;51.442;7.540;2023-03-14T02:11:18;8.50;;;1.10;;
42200;SDS011;27869;51.442;7.540;2023-03-14T02:13:46;6.70;;;1.02;;
42200;SDS011;27869;51.442;7.540;2023-03-14T02:16:13;6.10;;;0.73;;
42200;SDS011;27869;51.442;7.540;2023-03-14T02:18:40;7.60;;;1.20;;
42200;SDS011;27869;51.442;7.540;2023-03-14T02:21:11;5.35;;;0.90;;
42200;SDS011;27869;51.442;7.540;2023-03-14T02:23:43;5.45;;;1.23;;
42200;SDS011;27869;51.442;7.540;2023-03-14T02:26:19;4.28;;;0.77;;
42200;SDS011;27869;51.442;7.540;2023-03-14T02:28:50;3.95;;;0.50;;
42200;SDS011;27869;51.442;7.540;2023-03-14T02:31:20;3.35;;;0.50;;
42200;SDS011;27869;51.442;7.540;2023-03-14T02:33:48;9.73;;;1.30;;
42200;SDS011;27869;51.442;7.540;2023-03-14T02:36:16;5.32;;;0.93;;
42200;SDS011;27869;51.442;7.540;2023-03-14T02:41:13;7.53;;;1.20;;
42200;SDS011;27869;51.442;7.540;2023-03-14T02:43:40;7.40;;;1.17;;
42200;SDS011;27869;51.442;7.540;2023-03-14T02:46:09;6.20;;;0.90;;
42200;SDS011;27869;51.442;7.540;2023-03-14T02:48:39;3.80;;;0.82;;
42200;SDS011;27869;51.442;7.540;2023-03-14T02:51:09;6.75;;;0.90;;
42200;SDS011;27869;51.442;7.540;2023-03-14T02:53:37;7.53;;;1.15;;
42200;SDS011;27869;51.442;7.540;2023-03-14T02:56:06;7.88;;;1.10;;
42200;SDS011;27869;51.442;7.540;2023-03-14T02:58:34;6.47;;;1.02;;
42200;SDS011;27869;51.442;7.540;2023-03-14T03:01:01;8.93;;;1.10;;
42200;SDS011;27869;51.442;7.540;2023-03-14T03:03:29;9.85;;;1.23;;
42200;SDS011;27869;51.442;7.540;2023-03-14T03:05:56;5.72;;;0.95;;
42200;SDS011;27869;51.442;7.540;2023-03-14T03:08:24;7.43;;;1.20;;
42200;SDS011;27869;51.442;7.540;2023-03-14T03:10:52;4.07;;;0.77;;
42200;SDS011;27869;51.442;7.540;2023-03-14T03:13:19;6.55;;;0.80;;
42200;SDS011;27869;51.442;7.540;2023-03-14T03:15:46;8.00;;;0.73;;
42200;SDS011;27869;51.442;7.540;2023-03-14T03:18:13;6.70;;;0.80;;
42200;SDS011;27869;51.442;7.540;2023-03-14T03:20:42;6.90;;;0.90;;
42200;SDS011;27869;51.442;7.540;2023-03-14T03:23:09;6.43;;;1.05;;
42200;SDS011;27869;51.442;7.540;2023-03-14T03:25:36;8.75;;;1.00;;
42200;SDS011;27869;51.442;7.540;2023-03-14T03:28:02;4.82;;;0.80;;
42200;SDS011;27869;51.442;7.540;2023-03-14T03:30:32;6.90;;;1.13;;
42200;SDS011;27869;51.442;7.540;2023-03-14T03:33:00;6.22;;;1.20;;
42200;SDS011;27869;51.442;7.540;2023-03-14T03:35:27;6.28;;;1.00;;
42200;SDS011;27869;51.442;7.540;2023-03-14T03:37:55;4.68;;;0.75;;
42200;SDS011;27869;51.442;7.540;2023-03-14T03:40:22;8.38;;;1.15;;
42200;SDS011;27869;51.442;7.540;2023-03-14T03:42:49;9.07;;;1.25;;
42200;SDS011;27869;51.442;7.540;2023-03-14T03:45:17;9.93;;;1.23;;
42200;SDS011;27869;51.442;7.540;2023-03-14T03:47:43;9.00;;;1.05;;
42200;SDS011;27869;51.442;7.540;2023-03-14T03:50:10;4.28;;;0.77;;
42200;SDS011;27869;51.442;7.540;2023-03-14T03:52:37;4.28;;;0.63;;
42200;SDS011;27869;51.442;7.540;2023-03-14T03:55:06;5.50;;;0.80;;
42200;SDS011;27869;51.442;7.540;2023-03-14T03:57:33;6.47;;;1.20;;
42200;SDS011;27869;51.442;7.540;2023-03-14T04:00:00;6.53;;;0.80;;
42200;SDS011;27869;51.442;7.540;2023-03-14T04:02:27;5.40;;;1.17;;
42200;SDS011;27869;51.442;7.540;2023-03-14T04:04:54;8.07;;;1.17;;
42200;SDS011;27869;51.442;7.540;2023-03-14T04:07:21;6.57;;;0.90;;
42200;SDS011;27869;51.442;7.540;2023-03-14T04:09:48;6.40;;;0.95;;
42200;SDS011;27869;51.442;7.540;2023-03-14T04:12:17;6.75;;;1.00;;
42200;SDS011;27869;51.442;7.540;2023-03-14T04:14:44;8.60;;;1.42;;
42200;SDS011;27869;51.442;7.540;2023-03-14T04:17:11;7.28;;;0.77;;
42200;SDS011;27869;51.442;7.540;2023-03-14T04:19:38;7.20;;;1.00;;
42200;SDS011;27869;51.442;7.540;2023-03-14T04:22:05;7.70;;;0.90;;
42200;SDS011;27869;51.442;7.540;2023-03-14T04:24:32;5.40;;;0.70;;
42200;SDS011;27869;51.442;7.540;2023-03-14T04:26:59;3.97;;;0.77;;
42200;SDS011;27869;51.442;7.540;2023-03-14T04:29:27;3.55;;;0.60;;
42200;SDS011;27869;51.442;7.540;2023-03-14T04:31:54;5.10;;;0.55;;
42200;SDS011;27869;51.442;7.540;2023-03-14T04:34:21;4.43;;;0.70;;
42200;SDS011;27869;51.442;7.540;2023-03-14T04:36:48;5.65;;;0.70;;
42200;SDS011;27869;51.442;7.540;2023-03-14T04:39:15;3.28;;;0.57;;
42200;SDS011;27869;51.442;7.540;2023-03-14T04:41:41;6.68;;;0.70;;
42200;SDS011;27869;51.442;7.540;2023-03-14T04:44:10;3.28;;;0.63;;
42200;SDS011;27869;51.442;7.540;2023-03-14T04:46:38;5.70;;;0.80;;
42200;SDS011;27869;51.442;7.540;2023-03-14T04:49:05;5.40;;;0.80;;
42200;SDS011;27869;51.442;7.540;2023-03-14T04:51:32;5.82;;;1.00;;
42200;SDS011;27869;51.442;7.540;2023-03-14T04:53:58;6.10;;;0.73;;
42200;SDS011;27869;51.442;7.540;2023-03-14T04:56:25;5.78;;;0.90;;
42200;SDS011;27869;51.442;7.540;2023-03-14T04:58:52;5.88;;;1.20;;
42200;SDS011;27869;51.442;7.540;2023-03-14T05:01:19;6.50;;;1.02;;
42200;SDS011;27869;51.442;7.540;2023-03-14T05:03:47;4.13;;;0.80;;
42200;SDS011;27869;51.442;7.540;2023-03-14T05:06:14;9.40;;;1.05;;
42200;SDS011;27869;51.442;7.540;2023-03-14T05:08:41;6.88;;;1.08;;
42200;SDS011;27869;51.442;7.540;2023-03-14T05:11:09;3.85;;;0.90;;
42200;SDS011;27869;51.442;7.540;2023-03-14T05:13:37;5.57;;;1.20;;
42200;SDS011;27869;51.442;7.540;2023-03-14T05:16:04;8.65;;;1.50;;
42200;SDS011;27869;51.442;7.540;2023-03-14T05:18:32;7.68;;;1.40;;
42200;SDS011;27869;51.442;7.540;2023-03-14T05:21:01;11.30;;;1.42;;
42200;SDS011;27869;51.442;7.540;2023-03-14T05:23:28;7.93;;;1.15;;
42200;SDS011;27869;51.442;7.540;2023-03-14T05:25:55;5.85;;;1.20;;
42200;SDS011;27869;51.442;7.540;2023-03-14T05:28:22;9.55;;;1.83;;
42200;SDS011;27869;51.442;7.540;2023-03-14T05:30:49;5.93;;;1.10;;
42200;SDS011;27869;51.442;7.540;2023-03-14T05:33:16;8.52;;;1.55;;
42200;SDS011;27869;51.442;7.540;2023-03-14T05:35:43;7.32;;;1.20;;
42200;SDS011;27869;51.442;7.540;2023-03-14T05:38:11;10.80;;;1.77;;
42200;SDS011;27869;51.442;7.540;2023-03-14T05:40:38;12.18;;;1.40;;
42200;SDS011;27869;51.442;7.540;2023-03-14T05:43:05;8.02;;;1.13;;
42200;SDS011;27869;51.442;7.540;2023-03-14T05:45:33;9.48;;;1.95;;
42200;SDS011;27869;51.442;7.540;2023-03-14T05:48:00;6.25;;;1.20;;
42200;SDS011;27869;51.442;7.540;2023-03-14T05:50:27;7.50;;;0.93;;
42200;SDS011;27869;51.442;7.540;2023-03-14T05:52:54;8.90;;;1.40;;
42200;SDS011;27869;51.442;7.540;2023-03-14T05:55:22;7.10;;;1.35;;
42200;SDS011;27869;51.442;7.540;2023-03-14T05:57:49;4.38;;;0.70;;
42200;SDS011;27869;51.442;7.540;2023-03-14T06:00:16;2.90;;;0.75;;
42200;SDS011;27869;51.442;7.540;2023-03-14T06:02:44;3.65;;;0.80;;
42200;SDS011;27869;51.442;7.540;2023-03-14T06:05:11;4.53;;;0.75;;
42200;SDS011;27869;51.442;7.540;2023-03-14T06:07:38;6.53;;;1.00;;
42200;SDS011;27869;51.442;7.540;2023-03-14T06:10:05;2.15;;;0.65;;
42200;SDS011;27869;51.442;7.540;2023-03-14T06:12:34;7.63;;;1.10;;
42200;SDS011;27869;51.442;7.540;2023-03-14T06:15:01;2.50;;;0.63;;
42200;SDS011;27869;51.442;7.540;2023-03-14T06:17:29;3.10;;;0.75;;
42200;SDS011;27869;51.442;7.540;2023-03-14T06:19:56;5.78;;;0.75;;
42200;SDS011;27869;51.442;7.540;2023-03-14T06:22:23;6.72;;;1.02;;
42200;SDS011;27869;51.442;7.540;2023-03-14T06:24:50;4.13;;;0.70;;
42200;SDS011;27869;51.442;7.540;2023-03-14T06:27:16;3.25;;;0.77;;
42200;SDS011;27869;51.442;7.540;2023-03-14T06:29:45;5.15;;;0.77;;
42200;SDS011;27869;51.442;7.540;2023-03-14T06:32:12;6.07;;;0.95;;
42200;SDS011;27869;51.442;7.540;2023-03-14T06:34:38;5.80;;;0.77;;
42200;SDS011;27869;51.442;7.540;2023-03-14T06:37:06;4.40;;;0.80;;
42200;SDS011;27869;51.442;7.540;2023-03-14T06:39:32;1.77;;;0.75;;
42200;SDS011;27869;51.442;7.540;2023-03-14T06:42:00;2.30;;;0.50;;
42200;SDS011;27869;51.442;7.540;2023-03-14T06:44:26;3.85;;;0.43;;
42200;SDS011;27869;51.442;7.540;2023-03-14T06:46:55;2.50;;;0.50;;
42200;SDS011;27869;51.442;7.540;2023-03-14T06:49:21;1.50;;;0.45;;
42200;SDS011;27869;51.442;7.540;2023-03-14T06:51:48;4.40;;;0.63;;
42200;SDS011;27869;51.442;7.540;2023-03-14T06:54:15;4.82;;;0.70;;
42200;SDS011;27869;51.442;7.540;2023-03-14T06:56:42;2.10;;;0.60;;
42200;SDS011;27869;51.442;7.540;2023-03-14T06:59:09;7.30;;;1.60;;
42200;SDS011;27869;51.442;7.540;2023-03-14T07:01:36;4.03;;;0.82;;
42200;SDS011;27869;51.442;7.540;2023-03-14T07:04:04;10.02;;;2.67;;
42200;SDS011;27869;51.442;7.540;2023-03-14T07:06:32;2.40;;;0.70;;
42200;SDS011;27869;51.442;7.540;2023-03-14T07:09:00;4.60;;;0.90;;
42200;SDS011;27869;51.442;7.540;2023-03-14T07:11:27;10.38;;;1.80;;
42200;SDS011;27869;51.442;7.540;2023-03-14T07:13:54;8.82;;;2.00;;
42200;SDS011;27869;51.442;7.540;2023-03-14T07:16:21;10.43;;;2.47;;
42200;SDS011;27869;51.442;7.540;2023-03-14T07:18:47;11.27;;;2.83;;
42200;SDS011;27869;51.442;7.540;2023-03-14T07:21:16;22.55;;;7.80;;
42200;SDS011;27869;51.442;7.540;2023-03-14T07:23:43;6.88;;;1.42;;
42200;SDS011;27869;51.442;7.540;2023-03-14T07:26:10;10.48;;;3.05;;
42200;SDS011;27869;51.442;7.540;2023-03-14T07:28:37;15.07;;;4.65;;
42200;SDS011;27869;51.442;7.540;2023-03-14T07:31:04;7.80;;;2.08;;
42200;SDS011;27869;51.442;7.540;2023-03-14T07:33:31;7.70;;;1.92;;
42200;SDS011;27869;51.442;7.540;2023-03-14T07:35:58;4.35;;;1.00;;
42200;SDS011;27869;51.442;7.540;2023-03-14T07:38:26;5.57;;;1.58;;
42200;SDS011;27869;51.442;7.540;2023-03-14T07:40:57;2.97;;;0.77;;
42200;SDS011;27869;51.442;7.540;2023-03-14T07:43:25;4.43;;;0.90;;
42200;SDS011;27869;51.442;7.540;2023-03-14T07:45:52;4.20;;;1.10;;
42200;SDS011;27869;51.442;7.540;2023-03-14T07:48:19;7.63;;;1.23;;
42200;SDS011;27869;51.442;7.540;2023-03-14T07:50:48;3.55;;;1.15;;
42200;SDS011;27869;51.442;7.540;2023-03-14T07:53:15;4.55;;;1.27;;
42200;SDS011;27869;51.442;7.540;2023-03-14T07:55:43;2.78;;;0.75;;
42200;SDS011;27869;51.442;7.540;2023-03-14T07:58:10;9.57;;;2.70;;
42200;SDS011;27869;51.442;7.540;2023-03-14T08:00:37;4.30;;;1.20;;
42200;SDS011;27869;51.442;7.540;2023-03-14T08:03:04;6.30;;;1.63;;
42200;SDS011;27869;51.442;7.540;2023-03-14T08:05:33;10.55;;;2.30;;
42200;SDS011;27869;51.442;7.540;2023-03-14T08:10:27;2.08;;;0.70;;
42200;SDS011;27869;51.442;7.540;2023-03-14T08:12:56;4.30;;;1.25;;
42200;SDS011;27869;51.442;7.540;2023-03-14T08:15:24;2.20;;;0.90;;
42200;SDS011;27869;51.442;7.540;2023-03-14T08:17:51;3.08;;;1.10;;
42200;SDS011;27869;51.442;7.540;2023-03-14T08:20:19;2.65;;;0.77;;
42200;SDS011;27869;51.442;7.540;2023-03-14T08:22:47;3.17;;;0.80;;
42200;SDS011;27869;51.442;7.540;2023-03-14T08:25:14;3.03;;;1.00;;
42200;SDS011;27869;51.442;7.540;2023-03-14T08:27:41;4.43;;;0.82;;
42200;SDS011;27869;51.442;7.540;2023-03-14T08:30:11;3.55;;;1.00;;
42200;SDS011;27869;51.442;7.540;2023-03-14T08:32:40;4.78;;;1.48;;
42200;SDS011;27869;51.442;7.540;2023-03-14T08:35:07;2.83;;;1.20;;
42200;SDS011;27869;51.442;7.540;2023-03-14T08:37:35;2.38;;;0.95;;
42200;SDS011;27869;51.442;7.540;2023-03-14T08:40:02;7.03;;;1.20;;
42200;SDS011;27869;51.442;7.540;2023-03-14T08:42:31;6.78;;;1.98;;
42200;SDS011;27869;51.442;7.540;2023-03-14T08:44:58;7.97;;;2.40;;
42200;SDS011;27869;51.442;7.540;2023-03-14T08:47:26;9.00;;;2.10;;
42200;SDS011;27869;51.442;7.540;2023-03-14T08:49:53;2.72;;;1.02;;
42200;SDS011;27869;51.442;7.540;2023-03-14T08:52:23;6.80;;;1.30;;
42200;SDS011;27869;51.442;7.540;2023-03-14T08:54:50;3.55;;;1.50;;
42200;SDS011;27869;51.442;7.540;2023-03-14T08:57:17;5.35;;;1.83;;
42200;SDS011;27869;51.442;7.540;2023-03-14T08:59:46;4.55;;;1.20;;
42200;SDS011;27869;51.442;7.540;2023-03-14T09:02:13;4.32;;;1.60;;
42200;SDS011;27869;51.442;7.540;2023-03-14T09:04:42;3.47;;;1.27;;
42200;SDS011;27869;51.442;7.540;2023-03-14T09:07:08;3.55;;;1.10;;
42200;SDS011;27869;51.442;7.540;2023-03-14T09:09:36;3.10;;;1.20;;
42200;SDS011;27869;51.442;7.540;2023-03-14T09:12:03;2.90;;;1.10;;
42200;SDS011;27869;51.442;7.540;2023-03-14T09:14:30;6.45;;;1.10;;
42200;SDS011;27869;51.442;7.540;2023-03-14T09:16:58;4.30;;;1.20;;
42200;SDS011;27869;51.442;7.540;2023-03-14T09:19:25;12.10;;;2.00;;
42200;SDS011;27869;51.442;7.540;2023-03-14T09:21:53;3.80;;;1.20;;
42200;SDS011;27869;51.442;7.540;2023-03-14T09:24:20;3.05;;;1.17;;
42200;SDS011;27869;51.442;7.540;2023-03-14T09:26:47;2.85;;;0.90;;
42200;SDS011;27869;51.442;7.540;2023-03-14T09:29:14;4.18;;;1.42;;
42200;SDS011;27869;51.442;7.540;2023-03-14T09:31:41;2.50;;;0.93;;
42200;SDS011;27869;51.442;7.540;2023-03-14T09:34:08;6.35;;;1.17;;
42200;SDS011;27869;51.442;7.540;2023-03-14T09:36:35;5.30;;;1.13;;
42200;SDS011;27869;51.442;7.540;2023-03-14T09:39:04;2.83;;;0.70;;
42200;SDS011;27869;51.442;7.540;2023-03-14T09:41:33;2.35;;;0.80;;
42200;SDS011;27869;51.442;7.540;2023-03-14T09:44:03;4.18;;;0.85;;
42200;SDS011;27869;51.442;7.540;2023-03-14T09:46:31;5.05;;;1.15;;
42200;SDS011;27869;51.442;7.540;2023-03-14T09:49:02;5.10;;;0.90;;
42200;SDS011;27869;51.442;7.540;2023-03-14T09:51:34;2.00;;;0.40;;
42200;SDS011;27869;51.442;7.540;2023-03-14T09:54:01;0.32;;;0.30;;
42200;SDS011;27869;51.442;7.540;2023-03-14T09:56:31;3.17;;;0.50;;
42200;SDS011;27869;51.442;7.540;2023-03-14T09:59:00;0.95;;;0.68;;
42200;SDS011;27869;51.442;7.540;2023-03-14T10:01:31;0.50;;;0.22;;
42200;SDS011;27869;51.442;7.540;2023-03-14T10:04:00;1.88;;;0.63;;
42200;SDS011;27869;51.442;7.540;2023-03-14T10:06:32;0.40;;;0.20;;
42200;SDS011;27869;51.442;7.540;2023-03-14T10:08:59;1.10;;;0.40;;
42200;SDS011;27869;51.442;7.540;2023-03-14T10:11:32;4.07;;;0.60;;
42200;SDS011;27869;51.442;7.540;2023-03-14T10:14:04;0.65;;;0.50;;
42200;SDS011;27869;51.442;7.540;2023-03-14T10:16:33;1.42;;;0.43;;
42200;SDS011;27869;51.442;7.540;2023-03-14T10:19:02;2.50;;;0.75;;
42200;SDS011;27869;51.442;7.540;2023-03-14T10:21:35;0.85;;;0.30;;
42200;SDS011;27869;51.442;7.540;2023-03-14T10:24:07;1.42;;;0.57;;
42200;SDS011;27869;51.442;7.540;2023-03-14T10:26:37;2.47;;;0.73;;
42200;SDS011;27869;51.442;7.540;2023-03-14T10:29:08;1.83;;;0.70;;
42200;SDS011;27869;51.442;7.540;2023-03-14T10:31:48;2.53;;;1.00;;
42200;SDS011;27869;51.442;7.540;2023-03-14T10:34:21;1.55;;;0.63;;
42200;SDS011;27869;51.442;7.540;2023-03-14T10:36:54;2.85;;;0.50;;
42200;SDS011;27869;51.442;7.540;2023-03-14T10:42:14;2.53;;;0.57;;
42200;SDS011;27869;51.442;7.540;2023-03-14T10:44:46;2.47;;;0.85;;
42200;SDS011;27869;51.442;7.540;2023-03-14T10:47:18;2.17;;;0.68;;
42200;SDS011;27869;51.442;7.540;2023-03-14T10:49:48;1.60;;;0.68;;
42200;SDS011;27869;51.442;7.540;2023-03-14T10:52:18;2.45;;;0.57;;
42200;SDS011;27869;51.442;7.540;2023-03-14T10:54:48;3.33;;;0.60;;
42200;SDS011;27869;51.442;7.540;2023-03-14T10:57:21;0.95;;;0.40;;
42200;SDS011;27869;51.442;7.540;2023-03-14T10:59:48;2.78;;;0.40;;
42200;SDS011;27869;51.442;7.540;2023-03-14T11:02:28;2.08;;;0.50;;
42200;SDS011;27869;51.442;7.540;2023-03-14T11:07:39;2.92;;;0.57;;
42200;SDS011;27869;51.442;7.540;2023-03-14T11:10:18;1.90;;;0.50;;
42200;SDS011;27869;51.442;7.540;2023-03-14T11:12:52;2.50;;;0.50;;
42200;SDS011;27869;51.442;7.540;2023-03-14T11:15:28;1.40;;;0.60;;
42200;SDS011;27869;51.442;7.540;2023-03-14T11:18:04;1.30;;;0.40;;
42200;SDS011;27869;51.442;7.540;2023-03-14T11:20:42;1.83;;;0.73;;
42200;SDS011;27869;51.442;7.540;2023-03-14T11:23:17;3.03;;;0.70;;
42200;SDS011;27869;51.442;7.540;2023-03-14T11:25:49;2.33;;;0.88;;
42200;SDS011;27869;51.442;7.540;2023-03-14T11:28:26;2.38;;;0.73;;
42200;SDS011;27869;51.442;7.540;2023-03-14T11:31:00;5.38;;;1.10;;
42200;SDS011;27869;51.442;7.540;2023-03-14T11:33:37;1.45;;;0.77;;
42200;SDS011;27869;51.442;7.540;2023-03-14T11:36:06;3.13;;;0.70;;
42200;SDS011;27869;51.442;7.540;2023-03-14T11:38:34;1.08;;;0.55;;
42200;SDS011;27869;51.442;7.540;2023-03-14T11:41:08;1.40;;;0.40;;
42200;SDS011;27869;51.442;7.540;2023-03-14T11:43:40;5.32;;;0.60;;
42200;SDS011;27869;51.442;7.540;2023-03-14T11:46:09;3.22;;;1.70;;
42200;SDS011;27869;51.442;7.540;2023-03-14T11:48:42;3.03;;;0.80;;
42200;SDS011;27869;51.442;7.540;2023-03-14T11:51:14;2.17;;;0.43;;
42200;SDS011;27869;51.442;7.540;2023-03-14T11:53:48;1.52;;;0.47;;
42200;SDS011;27869;51.442;7.540;2023-03-14T11:56:24;1.48;;;0.43;;
42200;SDS011;27869;51.442;7.540;2023-03-14T11:58:57;1.08;;;0.35;;
42200;SDS011;27869;51.442;7.540;2023-03-14T12:01:33;2.67;;;0.40;;
42200;SDS011;27869;51.442;7.540;2023-03-14T12:04:12;3.03;;;0.50;;
42200;SDS011;27869;51.442;7.540;2023-03-14T12:06:45;2.65;;;0.52;;
42200;SDS011;27869;51.442;7.540;2023-03-14T12:09:15;3.40;;;0.50;;
42200;SDS011;27869;51.442;7.540;2023-03-14T12:11:44;3.67;;;0.90;;
42200;SDS011;27869;51.442;7.540;2023-03-14T12:14:20;1.13;;;0.50;;
42200;SDS011;27869;51.442;7.540;2023-03-14T12:16:52;1.23;;;0.40;;
42200;SDS011;27869;51.442;7.540;2023-03-14T12:19:32;5.47;;;0.70;;
42200;SDS011;27869;51.442;7.540;2023-03-14T12:22:02;1.63;;;0.32;;
42200;SDS011;27869;51.442;7.540;2023-03-14T12:24:35;2.80;;;0.75;;
42200;SDS011;27869;51.442;7.540;2023-03-14T12:29:35;3.45;;;0.85;;
42200;SDS011;27869;51.442;7.540;2023-03-14T12:32:26;7.57;;;0.80;;
42200;SDS011;27869;51.442;7.540;2023-03-14T12:34:53;3.92;;;0.70;;
42200;SDS011;27869;51.442;7.540;2023-03-14T12:37:23;4.25;;;0.82;;
42200;SDS011;27869;51.442;7.540;2023-03-14T12:39:58;5.53;;;0.93;;
42200;SDS011;27869;51.442;7.540;2023-03-14T12:42:45;8.57;;;1.17;;
42200;SDS011;27869;51.442;7.540;2023-03-14T12:45:25;4.32;;;1.00;;
42200;SDS011;27869;51.442;7.540;2023-03-14T12:48:10;6.00;;;0.90;;
42200;SDS011;27869;51.442;7.540;2023-03-14T12:50:45;9.73;;;0.90;;
42200;SDS011;27869;51.442;7.540;2023-03-14T12:56:43;7.90;;;1.00;;
42200;SDS011;27869;51.442;7.540;2023-03-14T12:59:28;4.38;;;0.90;;
42200;SDS011;27869;51.442;7.540;2023-03-14T13:02:00;6.28;;;0.60;;
42200;SDS011;27869;51.442;7.540;2023-03-14T13:04:49;7.28;;;0.80;;
42200;SDS011;27869;51.442;7.540;2023-03-14T13:10:15;5.50;;;0.80;;
42200;SDS011;27869;51.442;7.540;2023-03-14T13:12:47;9.10;;;1.10;;
42200;SDS011;27869;51.442;7.540;2023-03-14T13:15:21;7.13;;;0.93;;
42200;SDS011;27869;51.442;7.540;2023-03-14T13:17:52;8.57;;;1.02;;
42200;SDS011;27869;51.442;7.540;2023-03-14T13:20:24;6.65;;;0.88;;
42200;SDS011;27869;51.442;7.540;2023-03-14T13:22:56;6.05;;;0.98;;
42200;SDS011;27869;51.442;7.540;2023-03-14T13:25:23;5.10;;;0.88;;
42200;SDS011;27869;51.442;7.540;2023-03-14T13:27:52;7.95;;;0.90;;
42200;SDS011;27869;51.442;7.540;2023-03-14T13:30:22;10.23;;;1.50;;
42200;SDS011;27869;51.442;7.540;2023-03-14T13:32:53;12.45;;;1.60;;
42200;SDS011;27869;51.442;7.540;2023-03-14T13:35:25;12.88;;;1.77;;
42200;SDS011;27869;51.442;7.540;2023-03-14T13:37:57;14.30;;;1.95;;
42200;SDS011;27869;51.442;7.540;2023-03-14T13:40:27;9.40;;;1.23;;
42200;SDS011;27869;51.442;7.540;2023-03-14T13:42:59;11.98;;;1.40;;
42200;SDS011;27869;51.442;7.540;2023-03-14T13:45:41;17.30;;;1.77;;
42200;SDS011;27869;51.442;7.540;2023-03-14T13:48:15;13.88;;;1.63;;
42200;SDS011;27869;51.442;7.540;2023-03-14T13:50:49;11.68;;;1.70;;
42200;SDS011;27869;51.442;7.540;2023-03-14T13:53:18;16.77;;;2.13;;
42200;SDS011;27869;51.442;7.540;2023-03-14T13:55:45;13.82;;;1.52;;
42200;SDS011;27869;51.442;7.540;2023-03-14T13:58:18;13.40;;;1.52;;
42200;SDS011;27869;51.442;7.540;2023-03-14T14:00:54;9.55;;;1.80;;
42200;SDS011;27869;51.442;7.540;2023-03-14T14:03:25;18.00;;;1.90;;
42200;SDS011;27869;51.442;7.540;2023-03-14T14:05:57;13.63;;;1.48;;
42200;SDS011;27869;51.442;7.540;2023-03-14T14:08:24;13.73;;;1.73;;
42200;SDS011;27869;51.442;7.540;2023-03-14T14:10:53;13.90;;;1.50;;
42200;SDS011;27869;51.442;7.540;2023-03-14T14:13:26;19.52;;;1.70;;
42200;SDS011;27869;51.442;7.540;2023-03-14T14:15:58;11.35;;;1.38;;
42200;SDS011;27869;51.442;7.540;2023-03-14T14:18:29;14.98;;;1.42;;
42200;SDS011;27869;51.442;7.540;2023-03-14T14:20:58;13.93;;;1.70;;
42200;SDS011;27869;51.442;7.540;2023-03-14T14:23:25;15.25;;;1.63;;
42200;SDS011;27869;51.442;7.540;2023-03-14T14:25:54;10.38;;;1.40;;
42200;SDS011;27869;51.442;7.540;2023-03-14T14:28:23;20.42;;;1.95;;
42200;SDS011;27869;51.442;7.540;2023-03-14T14:30:59;16.15;;;1.95;;
42200;SDS011;27869;51.442;7.540;2023-03-14T14:36:03;15.02;;;1.40;;
42200;SDS011;27869;51.442;7.540;2023-03-14T14:38:31;12.55;;;1.42;;
42200;SDS011;27869;51.442;7.540;2023-03-14T14:40:59;14.35;;;2.00;;
42200;SDS011;27869;51.442;7.540;2023-03-14T14:43:28;18.02;;;2.13;;
42200;SDS011;27869;51.442;7.540;2023-03-14T14:46:00;14.55;;;1.85;;
42200;SDS011;27869;51.442;7.540;2023-03-14T14:48:30;13.00;;;1.77;;
42200;SDS011;27869;51.442;7.540;2023-03-14T14:51:03;11.98;;;1.40;;
42200;SDS011;27869;51.442;7.540;2023-03-14T14:53:35;19.60;;;1.75;;
42200;SDS011;27869;51.442;7.540;2023-03-14T14:56:04;16.27;;;2.17;;
42200;SDS011;27869;51.442;7.540;2023-03-14T14:58:34;16.73;;;2.00;;
42200;SDS011;27869;51.442;7.540;2023-03-14T15:01:03;15.23;;;2.17;;
42200;SDS011;27869;51.442;7.540;2023-03-14T15:03:35;15.35;;;2.00;;
42200;SDS011;27869;51.442;7.540;2023-03-14T15:06:03;14.68;;;1.50;;
42200;SDS011;27869;51.442;7.540;2023-03-14T15:08:30;14.70;;;1.88;;
42200;SDS011;27869;51.442;7.540;2023-03-14T15:10:57;9.98;;;1.52;;
42200;SDS011;27869;51.442;7.540;2023-03-14T15:13:24;15.60;;;1.67;;
42200;SDS011;27869;51.442;7.540;2023-03-14T15:15:51;12.80;;;1.42;;
42200;SDS011;27869;51.442;7.540;2023-03-14T15:18:21;10.32;;;1.42;;
42200;SDS011;27869;51.442;7.540;2023-03-14T15:20:51;12.20;;;2.13;;
42200;SDS011;27869;51.442;7.540;2023-03-14T15:23:19;13.65;;;1.52;;
42200;SDS011;27869;51.442;7.540;2023-03-14T15:25:47;18.05;;;1.77;;